Aviation Digital Data Service (ADDS)

Output produced by METARs form (1814 UTC 27 November 2014)
found at http://aviationweather.gov/adds/metars/
 
KVQQ 271720Z 2718/2818 31011G20KT P6SM SKC 
     FM272300 32008KT P6SM SKC 
     FM280400 32005KT P6SM SKC 
     FM281400 36006KT P6SM SKC